sensor_id;sensor_type;location;lat;lon;timestamp;P1;durP1;ratioP1;P2;durP2;ratioP2
74674;SDS011;63200;48.810;12.352;2022-09-09T00:03:39;3.70;;;2.35;;
74674;SDS011;63200;48.810;12.352;2022-09-09T00:08:57;2.20;;;2.05;;
74674;SDS011;63200;48.810;12.352;2022-09-09T00:12:14;1.73;;;1.70;;
74674;SDS011;63200;48.810;12.352;2022-09-09T00:14:26;2.85;;;1.95;;
74674;SDS011;63200;48.810;12.352;2022-09-09T00:16:59;3.75;;;1.90;;
74674;SDS011;63200;48.810;12.352;2022-09-09T00:19:33;2.63;;;1.85;;
74674;SDS011;63200;48.810;12.352;2022-09-09T00:22:17;4.53;;;1.80;;
74674;SDS011;63200;48.810;12.352;2022-09-09T00:25:33;2.20;;;2.08;;
74674;SDS011;63200;48.810;12.352;2022-09-09T00:27:44;7.45;;;2.45;;
74674;SDS011;63200;48.810;12.352;2022-09-09T00:32:48;11.32;;;3.08;;
74674;SDS011;63200;48.810;12.352;2022-09-09T00:35:31;14.20;;;3.67;;
74674;SDS011;63200;48.810;12.352;2022-09-09T00:38:04;13.85;;;3.20;;
74674;SDS011;63200;48.810;12.352;2022-09-09T00:51:58;17.27;;;3.30;;
74674;SDS011;63200;48.810;12.352;2022-09-09T00:57:43;3.35;;;2.50;;
74674;SDS011;63200;48.810;12.352;2022-09-09T01:00:01;3.30;;;2.10;;
74674;SDS011;63200;48.810;12.352;2022-09-09T01:11:25;21.52;;;3.25;;
74674;SDS011;63200;48.810;12.352;2022-09-09T01:16:45;8.82;;;2.95;;
74674;SDS011;63200;48.810;12.352;2022-09-09T01:19:20;17.10;;;3.08;;
74674;SDS011;63200;48.810;12.352;2022-09-09T01:22:00;5.93;;;2.75;;
74674;SDS011;63200;48.810;12.352;2022-09-09T01:27:33;5.22;;;2.67;;
74674;SDS011;63200;48.810;12.352;2022-09-09T01:30:01;8.05;;;2.80;;
74674;SDS011;63200;48.810;12.352;2022-09-09T01:35:11;13.38;;;2.80;;
74674;SDS011;63200;48.810;12.352;2022-09-09T01:37:46;7.35;;;2.50;;
74674;SDS011;63200;48.810;12.352;2022-09-09T01:40:11;30.58;;;2.83;;
74674;SDS011;63200;48.810;12.352;2022-09-09T01:42:36;21.17;;;2.53;;
74674;SDS011;63200;48.810;12.352;2022-09-09T01:45:02;11.68;;;2.50;;
74674;SDS011;63200;48.810;12.352;2022-09-09T01:47:28;12.15;;;2.50;;
74674;SDS011;63200;48.810;12.352;2022-09-09T01:49:54;3.72;;;2.50;;
74674;SDS011;63200;48.810;12.352;2022-09-09T01:52:19;3.95;;;2.20;;
74674;SDS011;63200;48.810;12.352;2022-09-09T01:54:45;5.43;;;2.60;;
74674;SDS011;63200;48.810;12.352;2022-09-09T01:57:15;19.73;;;2.80;;
74674;SDS011;63200;48.810;12.352;2022-09-09T02:05:38;17.45;;;2.72;;
74674;SDS011;63200;48.810;12.352;2022-09-09T02:08:18;11.50;;;3.38;;
74674;SDS011;63200;48.810;12.352;2022-09-09T02:11:06;28.88;;;3.22;;
74674;SDS011;63200;48.810;12.352;2022-09-09T02:13:38;13.95;;;2.75;;
74674;SDS011;63200;48.810;12.352;2022-09-09T02:16:07;2.50;;;2.33;;
74674;SDS011;63200;48.810;12.352;2022-09-09T02:18:38;4.93;;;2.50;;
74674;SDS011;63200;48.810;12.352;2022-09-09T02:21:09;2.47;;;2.30;;
74674;SDS011;63200;48.810;12.352;2022-09-09T02:23:37;6.45;;;2.97;;
74674;SDS011;63200;48.810;12.352;2022-09-09T02:26:04;6.95;;;2.45;;
74674;SDS011;63200;48.810;12.352;2022-09-09T02:28:32;9.52;;;2.50;;
74674;SDS011;63200;48.810;12.352;2022-09-09T02:31:01;12.05;;;2.42;;
74674;SDS011;63200;48.810;12.352;2022-09-09T02:33:28;9.38;;;2.60;;
74674;SDS011;63200;48.810;12.352;2022-09-09T02:35:59;8.32;;;2.70;;
74674;SDS011;63200;48.810;12.352;2022-09-09T02:38:28;5.35;;;2.58;;
74674;SDS011;63200;48.810;12.352;2022-09-09T02:40:58;1.92;;;1.80;;
74674;SDS011;63200;48.810;12.352;2022-09-09T02:43:24;4.35;;;2.03;;
74674;SDS011;63200;48.810;12.352;2022-09-09T02:45:58;3.67;;;1.90;;
74674;SDS011;63200;48.810;12.352;2022-09-09T02:48:31;2.85;;;1.80;;
74674;SDS011;63200;48.810;12.352;2022-09-09T02:56:47;2.22;;;2.13;;
74674;SDS011;63200;48.810;12.352;2022-09-09T02:59:16;3.08;;;1.67;;
74674;SDS011;63200;48.810;12.352;2022-09-09T03:01:43;2.28;;;2.10;;
74674;SDS011;63200;48.810;12.352;2022-09-09T03:04:09;2.13;;;2.05;;
74674;SDS011;63200;48.810;12.352;2022-09-09T03:06:34;2.50;;;2.17;;
74674;SDS011;63200;48.810;12.352;2022-09-09T03:09:00;2.50;;;2.30;;
74674;SDS011;63200;48.810;12.352;2022-09-09T03:11:27;5.57;;;2.30;;
74674;SDS011;63200;48.810;12.352;2022-09-09T03:13:53;2.20;;;2.00;;
74674;SDS011;63200;48.810;12.352;2022-09-09T03:16:21;1.98;;;1.88;;
74674;SDS011;63200;48.810;12.352;2022-09-09T03:18:47;10.18;;;3.08;;
74674;SDS011;63200;48.810;12.352;2022-09-09T03:21:12;2.33;;;2.03;;
74674;SDS011;63200;48.810;12.352;2022-09-09T03:23:37;2.55;;;2.20;;
74674;SDS011;63200;48.810;12.352;2022-09-09T03:26:03;1.85;;;1.77;;
74674;SDS011;63200;48.810;12.352;2022-09-09T03:28:28;5.93;;;2.45;;
74674;SDS011;63200;48.810;12.352;2022-09-09T03:31:02;2.05;;;1.95;;
74674;SDS011;63200;48.810;12.352;2022-09-09T03:33:30;3.20;;;2.97;;
74674;SDS011;63200;48.810;12.352;2022-09-09T03:35:56;2.00;;;1.90;;
74674;SDS011;63200;48.810;12.352;2022-09-09T03:38:22;2.67;;;1.80;;
74674;SDS011;63200;48.810;12.352;2022-09-09T03:40:49;4.15;;;2.15;;
74674;SDS011;63200;48.810;12.352;2022-09-09T03:43:16;2.30;;;2.10;;
74674;SDS011;63200;48.810;12.352;2022-09-09T03:45:45;1.95;;;1.80;;
74674;SDS011;63200;48.810;12.352;2022-09-09T03:48:12;2.28;;;1.70;;
74674;SDS011;63200;48.810;12.352;2022-09-09T03:50:38;4.90;;;2.50;;
74674;SDS011;63200;48.810;12.352;2022-09-09T03:53:03;3.10;;;2.05;;
74674;SDS011;63200;48.810;12.352;2022-09-09T03:55:30;9.57;;;2.25;;
74674;SDS011;63200;48.810;12.352;2022-09-09T03:57:56;4.72;;;1.40;;
74674;SDS011;63200;48.810;12.352;2022-09-09T04:00:21;3.10;;;1.85;;
74674;SDS011;63200;48.810;12.352;2022-09-09T04:02:46;3.90;;;2.10;;
74674;SDS011;63200;48.810;12.352;2022-09-09T04:05:12;6.63;;;2.10;;
74674;SDS011;63200;48.810;12.352;2022-09-09T04:07:38;3.20;;;1.90;;
74674;SDS011;63200;48.810;12.352;2022-09-09T04:10:03;3.25;;;1.98;;
74674;SDS011;63200;48.810;12.352;2022-09-09T04:12:29;3.35;;;1.88;;
74674;SDS011;63200;48.810;12.352;2022-09-09T04:14:54;2.17;;;2.05;;
74674;SDS011;63200;48.810;12.352;2022-09-09T04:17:20;3.30;;;2.28;;
74674;SDS011;63200;48.810;12.352;2022-09-09T04:19:45;2.00;;;1.90;;
74674;SDS011;63200;48.810;12.352;2022-09-09T04:22:11;2.08;;;1.90;;
74674;SDS011;63200;48.810;12.352;2022-09-09T04:24:36;2.10;;;2.00;;
74674;SDS011;63200;48.810;12.352;2022-09-09T04:27:02;11.65;;;6.82;;
74674;SDS011;63200;48.810;12.352;2022-09-09T04:29:27;2.25;;;2.00;;
74674;SDS011;63200;48.810;12.352;2022-09-09T04:31:53;4.07;;;3.10;;
74674;SDS011;63200;48.810;12.352;2022-09-09T04:34:18;6.63;;;2.95;;
74674;SDS011;63200;48.810;12.352;2022-09-09T04:36:43;2.53;;;2.33;;
74674;SDS011;63200;48.810;12.352;2022-09-09T04:39:09;5.05;;;2.13;;
74674;SDS011;63200;48.810;12.352;2022-09-09T04:41:34;1.85;;;1.73;;
74674;SDS011;63200;48.810;12.352;2022-09-09T04:44:01;4.53;;;1.90;;
74674;SDS011;63200;48.810;12.352;2022-09-09T04:46:26;3.08;;;1.80;;
74674;SDS011;63200;48.810;12.352;2022-09-09T04:48:52;4.18;;;1.80;;
74674;SDS011;63200;48.810;12.352;2022-09-09T04:51:17;2.88;;;2.20;;
74674;SDS011;63200;48.810;12.352;2022-09-09T04:53:43;3.60;;;1.95;;
74674;SDS011;63200;48.810;12.352;2022-09-09T04:56:09;4.30;;;1.98;;
74674;SDS011;63200;48.810;12.352;2022-09-09T04:58:37;2.30;;;1.95;;
74674;SDS011;63200;48.810;12.352;2022-09-09T05:01:06;2.55;;;2.00;;
74674;SDS011;63200;48.810;12.352;2022-09-09T05:03:33;3.60;;;2.08;;
74674;SDS011;63200;48.810;12.352;2022-09-09T05:08:31;3.65;;;1.88;;
74674;SDS011;63200;48.810;12.352;2022-09-09T05:10:57;4.93;;;2.00;;
74674;SDS011;63200;48.810;12.352;2022-09-09T05:13:23;4.97;;;1.90;;
74674;SDS011;63200;48.810;12.352;2022-09-09T05:15:52;4.10;;;2.20;;
74674;SDS011;63200;48.810;12.352;2022-09-09T05:18:18;4.75;;;2.67;;
74674;SDS011;63200;48.810;12.352;2022-09-09T05:20:43;3.25;;;3.00;;
74674;SDS011;63200;48.810;12.352;2022-09-09T05:23:08;3.90;;;2.80;;
74674;SDS011;63200;48.810;12.352;2022-09-09T05:25:36;4.82;;;3.10;;
74674;SDS011;63200;48.810;12.352;2022-09-09T05:28:01;11.20;;;4.00;;
74674;SDS011;63200;48.810;12.352;2022-09-09T05:30:26;4.57;;;2.92;;
74674;SDS011;63200;48.810;12.352;2022-09-09T05:32:52;5.50;;;4.47;;
74674;SDS011;63200;48.810;12.352;2022-09-09T05:35:21;7.10;;;4.05;;
74674;SDS011;63200;48.810;12.352;2022-09-09T05:37:46;4.32;;;3.00;;
74674;SDS011;63200;48.810;12.352;2022-09-09T05:40:12;5.22;;;2.88;;
74674;SDS011;63200;48.810;12.352;2022-09-09T05:42:38;3.33;;;3.08;;
74674;SDS011;63200;48.810;12.352;2022-09-09T05:45:04;3.45;;;3.13;;
74674;SDS011;63200;48.810;12.352;2022-09-09T05:47:30;3.50;;;3.03;;
74674;SDS011;63200;48.810;12.352;2022-09-09T05:49:55;7.53;;;3.35;;
74674;SDS011;63200;48.810;12.352;2022-09-09T05:52:21;3.58;;;3.28;;
74674;SDS011;63200;48.810;12.352;2022-09-09T05:54:47;5.75;;;3.70;;
74674;SDS011;63200;48.810;12.352;2022-09-09T05:57:12;3.75;;;3.45;;
74674;SDS011;63200;48.810;12.352;2022-09-09T05:59:38;5.82;;;3.67;;
74674;SDS011;63200;48.810;12.352;2022-09-09T06:02:03;5.35;;;3.92;;
74674;SDS011;63200;48.810;12.352;2022-09-09T06:04:28;3.47;;;3.17;;
74674;SDS011;63200;48.810;12.352;2022-09-09T06:06:55;3.60;;;3.30;;
74674;SDS011;63200;48.810;12.352;2022-09-09T06:09:20;3.88;;;3.20;;
74674;SDS011;63200;48.810;12.352;2022-09-09T06:11:46;5.95;;;3.63;;
74674;SDS011;63200;48.810;12.352;2022-09-09T06:14:11;4.93;;;4.00;;
74674;SDS011;63200;48.810;12.352;2022-09-09T06:16:36;5.43;;;4.20;;
74674;SDS011;63200;48.810;12.352;2022-09-09T06:19:03;7.88;;;3.97;;
74674;SDS011;63200;48.810;12.352;2022-09-09T06:21:35;7.05;;;4.22;;
74674;SDS011;63200;48.810;12.352;2022-09-09T06:24:02;4.40;;;3.92;;
74674;SDS011;63200;48.810;12.352;2022-09-09T06:26:30;5.25;;;4.85;;
74674;SDS011;63200;48.810;12.352;2022-09-09T06:28:57;5.82;;;5.32;;
74674;SDS011;63200;48.810;12.352;2022-09-09T06:31:24;7.75;;;5.78;;
74674;SDS011;63200;48.810;12.352;2022-09-09T06:33:52;5.75;;;5.20;;
74674;SDS011;63200;48.810;12.352;2022-09-09T06:36:20;8.13;;;4.50;;
74674;SDS011;63200;48.810;12.352;2022-09-09T06:38:47;8.48;;;4.30;;
74674;SDS011;63200;48.810;12.352;2022-09-09T06:41:14;7.20;;;5.00;;
74674;SDS011;63200;48.810;12.352;2022-09-09T06:43:41;7.85;;;5.30;;
74674;SDS011;63200;48.810;12.352;2022-09-09T06:49:00;6.78;;;5.50;;
74674;SDS011;63200;48.810;12.352;2022-09-09T06:51:27;6.03;;;5.43;;
74674;SDS011;63200;48.810;12.352;2022-09-09T06:53:57;7.50;;;5.65;;
74674;SDS011;63200;48.810;12.352;2022-09-09T06:56:28;4.65;;;4.25;;
74674;SDS011;63200;48.810;12.352;2022-09-09T06:58:55;4.07;;;3.72;;
74674;SDS011;63200;48.810;12.352;2022-09-09T07:01:24;3.75;;;3.45;;
74674;SDS011;63200;48.810;12.352;2022-09-09T07:03:51;4.00;;;3.60;;
74674;SDS011;63200;48.810;12.352;2022-09-09T07:06:22;5.80;;;3.97;;
74674;SDS011;63200;48.810;12.352;2022-09-09T07:08:56;6.15;;;5.07;;
74674;SDS011;63200;48.810;12.352;2022-09-09T07:11:25;4.25;;;3.95;;
74674;SDS011;63200;48.810;12.352;2022-09-09T07:13:52;4.25;;;3.70;;
74674;SDS011;63200;48.810;12.352;2022-09-09T07:16:19;5.88;;;3.92;;
74674;SDS011;63200;48.810;12.352;2022-09-09T07:18:45;10.38;;;4.32;;
74674;SDS011;63200;48.810;12.352;2022-09-09T07:21:11;4.20;;;3.90;;
74674;SDS011;63200;48.810;12.352;2022-09-09T07:23:38;4.32;;;3.92;;
74674;SDS011;63200;48.810;12.352;2022-09-09T07:26:11;4.07;;;3.70;;
74674;SDS011;63200;48.810;12.352;2022-09-09T07:28:39;5.40;;;4.25;;
74674;SDS011;63200;48.810;12.352;2022-09-09T07:31:06;5.80;;;3.70;;
74674;SDS011;63200;48.810;12.352;2022-09-09T07:33:33;4.47;;;4.18;;
74674;SDS011;63200;48.810;12.352;2022-09-09T07:36:07;3.83;;;3.40;;
74674;SDS011;63200;48.810;12.352;2022-09-09T07:38:44;4.43;;;3.88;;
74674;SDS011;63200;48.810;12.352;2022-09-09T07:41:16;4.00;;;3.60;;
74674;SDS011;63200;48.810;12.352;2022-09-09T07:43:45;4.88;;;3.55;;
74674;SDS011;63200;48.810;12.352;2022-09-09T07:46:13;3.20;;;3.00;;
74674;SDS011;63200;48.810;12.352;2022-09-09T07:48:44;4.30;;;3.25;;
74674;SDS011;63200;48.810;12.352;2022-09-09T07:51:17;3.15;;;2.88;;
74674;SDS011;63200;48.810;12.352;2022-09-09T07:53:53;5.43;;;3.22;;
74674;SDS011;63200;48.810;12.352;2022-09-09T07:56:24;3.22;;;2.92;;
74674;SDS011;63200;48.810;12.352;2022-09-09T07:58:51;3.72;;;3.10;;
74674;SDS011;63200;48.810;12.352;2022-09-09T08:01:19;2.65;;;2.45;;
74674;SDS011;63200;48.810;12.352;2022-09-09T08:04:02;2.95;;;2.67;;
74674;SDS011;63200;48.810;12.352;2022-09-09T08:06:30;3.83;;;2.80;;
74674;SDS011;63200;48.810;12.352;2022-09-09T08:08:58;4.65;;;2.65;;
74674;SDS011;63200;48.810;12.352;2022-09-09T08:11:24;3.30;;;2.95;;
74674;SDS011;63200;48.810;12.352;2022-09-09T08:13:52;2.92;;;2.80;;
74674;SDS011;63200;48.810;12.352;2022-09-09T08:16:22;4.93;;;2.92;;
74674;SDS011;63200;48.810;12.352;2022-09-09T08:18:50;2.60;;;2.50;;
74674;SDS011;63200;48.810;12.352;2022-09-09T08:21:17;3.33;;;3.05;;
74674;SDS011;63200;48.810;12.352;2022-09-09T08:23:46;3.10;;;2.78;;
74674;SDS011;63200;48.810;12.352;2022-09-09T08:28:37;2.85;;;2.70;;
74674;SDS011;63200;48.810;12.352;2022-09-09T08:31:07;4.30;;;2.85;;
74674;SDS011;63200;48.810;12.352;2022-09-09T08:33:40;4.00;;;2.67;;
74674;SDS011;63200;48.810;12.352;2022-09-09T08:36:08;3.10;;;2.63;;
74674;SDS011;63200;48.810;12.352;2022-09-09T08:38:35;2.80;;;2.22;;
74674;SDS011;63200;48.810;12.352;2022-09-09T08:52:31;3.63;;;2.30;;
74674;SDS011;63200;48.810;12.352;2022-09-09T08:55:05;4.22;;;2.22;;
74674;SDS011;63200;48.810;12.352;2022-09-09T08:57:46;2.45;;;2.25;;
74674;SDS011;63200;48.810;12.352;2022-09-09T09:00:14;3.25;;;2.47;;
74674;SDS011;63200;48.810;12.352;2022-09-09T09:02:46;3.00;;;2.20;;
74674;SDS011;63200;48.810;12.352;2022-09-09T09:05:37;2.42;;;2.30;;
74674;SDS011;63200;48.810;12.352;2022-09-09T09:10:48;5.05;;;2.10;;
74674;SDS011;63200;48.810;12.352;2022-09-09T09:13:19;2.03;;;1.92;;
74674;SDS011;63200;48.810;12.352;2022-09-09T09:15:52;4.38;;;2.38;;
74674;SDS011;63200;48.810;12.352;2022-09-09T09:18:22;7.82;;;2.30;;
74674;SDS011;63200;48.810;12.352;2022-09-09T09:20:54;4.72;;;2.83;;
74674;SDS011;63200;48.810;12.352;2022-09-09T09:23:23;4.93;;;2.40;;
74674;SDS011;63200;48.810;12.352;2022-09-09T09:25:52;2.58;;;2.17;;
74674;SDS011;63200;48.810;12.352;2022-09-09T09:28:24;4.70;;;2.20;;
74674;SDS011;63200;48.810;12.352;2022-09-09T09:33:37;2.45;;;2.03;;
74674;SDS011;63200;48.810;12.352;2022-09-09T09:36:15;2.17;;;2.08;;
74674;SDS011;63200;48.810;12.352;2022-09-09T09:41:46;3.05;;;2.63;;
74674;SDS011;63200;48.810;12.352;2022-09-09T09:44:22;2.85;;;2.65;;
74674;SDS011;63200;48.810;12.352;2022-09-09T09:46:52;3.83;;;2.72;;
74674;SDS011;63200;48.810;12.352;2022-09-09T09:49:29;5.45;;;3.28;;
74674;SDS011;63200;48.810;12.352;2022-09-09T09:51:59;3.88;;;3.15;;
74674;SDS011;63200;48.810;12.352;2022-09-09T09:54:28;6.25;;;2.90;;
74674;SDS011;63200;48.810;12.352;2022-09-09T09:56:56;7.13;;;3.13;;
74674;SDS011;63200;48.810;12.352;2022-09-09T09:59:36;4.70;;;3.22;;
74674;SDS011;63200;48.810;12.352;2022-09-09T10:07:40;4.43;;;4.00;;
74674;SDS011;63200;48.810;12.352;2022-09-09T10:10:18;6.50;;;4.07;;
74674;SDS011;63200;48.810;12.352;2022-09-09T10:12:59;5.82;;;4.13;;
74674;SDS011;63200;48.810;12.352;2022-09-09T10:18:35;10.15;;;4.20;;
74674;SDS011;63200;48.810;12.352;2022-09-09T10:37:43;5.40;;;3.70;;
74674;SDS011;63200;48.810;12.352;2022-09-09T10:42:50;6.18;;;3.20;;
74674;SDS011;63200;48.810;12.352;2022-09-09T10:53:35;4.85;;;4.40;;
74674;SDS011;63200;48.810;12.352;2022-09-09T10:56:07;4.93;;;3.35;;
74674;SDS011;63200;48.810;12.352;2022-09-09T10:58:43;4.13;;;3.80;;
74674;SDS011;63200;48.810;12.352;2022-09-09T11:01:15;4.18;;;3.20;;
74674;SDS011;63200;48.810;12.352;2022-09-09T11:03:45;4.03;;;3.72;;
74674;SDS011;63200;48.810;12.352;2022-09-09T11:06:19;5.82;;;3.28;;
74674;SDS011;63200;48.810;12.352;2022-09-09T11:08:47;7.32;;;3.35;;
74674;SDS011;63200;48.810;12.352;2022-09-09T11:11:49;4.78;;;3.20;;
74674;SDS011;63200;48.810;12.352;2022-09-09T11:14:15;7.65;;;3.20;;
74674;SDS011;63200;48.810;12.352;2022-09-09T11:19:38;3.10;;;2.83;;
74674;SDS011;63200;48.810;12.352;2022-09-09T11:25:05;3.88;;;3.00;;
74674;SDS011;63200;48.810;12.352;2022-09-09T11:38:19;6.82;;;3.92;;
74674;SDS011;63200;48.810;12.352;2022-09-09T11:41:08;7.13;;;2.28;;
74674;SDS011;63200;48.810;12.352;2022-09-09T11:43:53;3.10;;;2.90;;
74674;SDS011;63200;48.810;12.352;2022-09-09T11:46:19;2.70;;;2.50;;
74674;SDS011;63200;48.810;12.352;2022-09-09T11:48:59;3.38;;;2.70;;
74674;SDS011;63200;48.810;12.352;2022-09-09T11:51:27;4.28;;;2.92;;
74674;SDS011;63200;48.810;12.352;2022-09-09T11:54:01;4.32;;;2.65;;
74674;SDS011;63200;48.810;12.352;2022-09-09T11:56:47;6.13;;;2.80;;
74674;SDS011;63200;48.810;12.352;2022-09-09T12:01:57;3.00;;;2.70;;
74674;SDS011;63200;48.810;12.352;2022-09-09T12:09:31;7.40;;;3.00;;
74674;SDS011;63200;48.810;12.352;2022-09-09T12:12:23;2.80;;;2.60;;
74674;SDS011;63200;48.810;12.352;2022-09-09T12:17:31;3.90;;;2.28;;
74674;SDS011;63200;48.810;12.352;2022-09-09T12:28:15;2.63;;;1.98;;
74674;SDS011;63200;48.810;12.352;2022-09-09T12:30:48;2.20;;;1.75;;
74674;SDS011;63200;48.810;12.352;2022-09-09T12:33:21;3.05;;;2.10;;
74674;SDS011;63200;48.810;12.352;2022-09-09T12:35:56;2.75;;;1.80;;
74674;SDS011;63200;48.810;12.352;2022-09-09T12:38:42;4.03;;;2.17;;
74674;SDS011;63200;48.810;12.352;2022-09-09T12:41:27;2.45;;;1.70;;
74674;SDS011;63200;48.810;12.352;2022-09-09T12:44:06;3.78;;;1.75;;
74674;SDS011;63200;48.810;12.352;2022-09-09T12:46:41;2.92;;;1.80;;
74674;SDS011;63200;48.810;12.352;2022-09-09T12:52:04;2.17;;;1.45;;
74674;SDS011;63200;48.810;12.352;2022-09-09T12:54:44;2.95;;;1.70;;
74674;SDS011;63200;48.810;12.352;2022-09-09T12:57:15;3.40;;;1.38;;
74674;SDS011;63200;48.810;12.352;2022-09-09T12:59:41;10.02;;;2.35;;
74674;SDS011;63200;48.810;12.352;2022-09-09T13:02:23;13.98;;;3.65;;
74674;SDS011;63200;48.810;12.352;2022-09-09T13:04:51;8.93;;;2.50;;
74674;SDS011;63200;48.810;12.352;2022-09-09T13:07:18;2.38;;;1.27;;
74674;SDS011;63200;48.810;12.352;2022-09-09T13:09:45;3.22;;;1.55;;
74674;SDS011;63200;48.810;12.352;2022-09-09T13:12:16;1.52;;;1.42;;
74674;SDS011;63200;48.810;12.352;2022-09-09T13:14:45;2.03;;;1.23;;
74674;SDS011;63200;48.810;12.352;2022-09-09T13:17:18;1.45;;;1.00;;
74674;SDS011;63200;48.810;12.352;2022-09-09T13:19:48;1.20;;;1.20;;
74674;SDS011;63200;48.810;12.352;2022-09-09T13:22:34;1.30;;;1.17;;
74674;SDS011;63200;48.810;12.352;2022-09-09T13:25:05;1.40;;;1.30;;
74674;SDS011;63200;48.810;12.352;2022-09-09T13:27:40;3.40;;;1.42;;
74674;SDS011;63200;48.810;12.352;2022-09-09T13:35:57;1.20;;;1.10;;
74674;SDS011;63200;48.810;12.352;2022-09-09T13:38:25;1.38;;;1.27;;
74674;SDS011;63200;48.810;12.352;2022-09-09T13:41:01;1.15;;;0.93;;
74674;SDS011;63200;48.810;12.352;2022-09-09T13:43:42;1.23;;;1.10;;
74674;SDS011;63200;48.810;12.352;2022-09-09T13:46:30;3.28;;;1.10;;
74674;SDS011;63200;48.810;12.352;2022-09-09T13:48:59;1.13;;;1.10;;
74674;SDS011;63200;48.810;12.352;2022-09-09T13:54:01;1.13;;;1.02;;
74674;SDS011;63200;48.810;12.352;2022-09-09T13:56:27;1.20;;;1.10;;
74674;SDS011;63200;48.810;12.352;2022-09-09T13:58:52;1.20;;;1.08;;
74674;SDS011;63200;48.810;12.352;2022-09-09T14:01:17;1.52;;;0.90;;
74674;SDS011;63200;48.810;12.352;2022-09-09T14:03:43;6.72;;;1.65;;
74674;SDS011;63200;48.810;12.352;2022-09-09T14:06:09;2.47;;;1.10;;
74674;SDS011;63200;48.810;12.352;2022-09-09T14:08:35;1.20;;;1.20;;
74674;SDS011;63200;48.810;12.352;2022-09-09T14:11:04;1.15;;;1.05;;
74674;SDS011;63200;48.810;12.352;2022-09-09T14:13:30;1.60;;;1.20;;
74674;SDS011;63200;48.810;12.352;2022-09-09T14:15:56;1.33;;;1.10;;
74674;SDS011;63200;48.810;12.352;2022-09-09T14:18:21;1.95;;;1.23;;
74674;SDS011;63200;48.810;12.352;2022-09-09T14:20:48;1.27;;;1.27;;
74674;SDS011;63200;48.810;12.352;2022-09-09T14:23:15;1.10;;;1.02;;
74674;SDS011;63200;48.810;12.352;2022-09-09T14:25:41;2.00;;;1.17;;
74674;SDS011;63200;48.810;12.352;2022-09-09T14:28:10;3.10;;;1.15;;
74674;SDS011;63200;48.810;12.352;2022-09-09T14:30:38;1.77;;;1.23;;
74674;SDS011;63200;48.810;12.352;2022-09-09T14:33:04;1.85;;;1.27;;
74674;SDS011;63200;48.810;12.352;2022-09-09T14:35:30;1.58;;;1.42;;
74674;SDS011;63200;48.810;12.352;2022-09-09T14:37:55;4.88;;;1.23;;
74674;SDS011;63200;48.810;12.352;2022-09-09T14:40:21;2.30;;;1.10;;
74674;SDS011;63200;48.810;12.352;2022-09-09T14:42:47;2.38;;;1.25;;
74674;SDS011;63200;48.810;12.352;2022-09-09T14:45:12;4.22;;;1.73;;
74674;SDS011;63200;48.810;12.352;2022-09-09T14:47:37;1.65;;;1.35;;
74674;SDS011;63200;48.810;12.352;2022-09-09T14:50:03;2.63;;;1.40;;
74674;SDS011;63200;48.810;12.352;2022-09-09T14:52:30;1.30;;;1.20;;
74674;SDS011;63200;48.810;12.352;2022-09-09T14:54:55;3.20;;;1.40;;
74674;SDS011;63200;48.810;12.352;2022-09-09T14:57:21;2.60;;;1.55;;
74674;SDS011;63200;48.810;12.352;2022-09-09T14:59:46;2.42;;;1.50;;
74674;SDS011;63200;48.810;12.352;2022-09-09T15:02:11;3.35;;;1.30;;
74674;SDS011;63200;48.810;12.352;2022-09-09T15:04:38;1.50;;;1.40;;
74674;SDS011;63200;48.810;12.352;2022-09-09T15:07:03;1.40;;;1.30;;
74674;SDS011;63200;48.810;12.352;2022-09-09T15:09:28;3.13;;;1.60;;
74674;SDS011;63200;48.810;12.352;2022-09-09T15:11:54;2.17;;;1.17;;
74674;SDS011;63200;48.810;12.352;2022-09-09T15:14:20;1.40;;;1.30;;
74674;SDS011;63200;48.810;12.352;2022-09-09T15:16:45;3.95;;;1.40;;
74674;SDS011;63200;48.810;12.352;2022-09-09T15:19:11;1.30;;;1.20;;
74674;SDS011;63200;48.810;12.352;2022-09-09T15:21:36;1.98;;;1.13;;
74674;SDS011;63200;48.810;12.352;2022-09-09T15:24:03;1.00;;;1.00;;
74674;SDS011;63200;48.810;12.352;2022-09-09T15:26:29;1.65;;;1.20;;
74674;SDS011;63200;48.810;12.352;2022-09-09T15:28:55;0.88;;;0.88;;
74674;SDS011;63200;48.810;12.352;2022-09-09T15:31:24;1.05;;;1.05;;
74674;SDS011;63200;48.810;12.352;2022-09-09T15:33:56;6.20;;;1.45;;
74674;SDS011;63200;48.810;12.352;2022-09-09T15:36:26;1.10;;;1.10;;
74674;SDS011;63200;48.810;12.352;2022-09-09T15:38:57;4.90;;;1.30;;
74674;SDS011;63200;48.810;12.352;2022-09-09T15:41:23;1.85;;;1.00;;
74674;SDS011;63200;48.810;12.352;2022-09-09T15:43:50;1.20;;;1.10;;
74674;SDS011;63200;48.810;12.352;2022-09-09T15:48:42;1.65;;;0.80;;
74674;SDS011;63200;48.810;12.352;2022-09-09T15:51:10;1.38;;;0.90;;
74674;SDS011;63200;48.810;12.352;2022-09-09T15:53:38;1.17;;;0.93;;
74674;SDS011;63200;48.810;12.352;2022-09-09T15:56:07;1.30;;;1.30;;
74674;SDS011;63200;48.810;12.352;2022-09-09T15:58:33;2.15;;;1.00;;
74674;SDS011;63200;48.810;12.352;2022-09-09T16:01:10;2.90;;;0.90;;
74674;SDS011;63200;48.810;12.352;2022-09-09T16:03:39;1.88;;;0.90;;
74674;SDS011;63200;48.810;12.352;2022-09-09T16:06:12;0.82;;;0.80;;
74674;SDS011;63200;48.810;12.352;2022-09-09T16:08:42;1.75;;;0.90;;
74674;SDS011;63200;48.810;12.352;2022-09-09T16:11:13;1.00;;;0.90;;
74674;SDS011;63200;48.810;12.352;2022-09-09T16:13:40;1.13;;;0.85;;
74674;SDS011;63200;48.810;12.352;2022-09-09T16:16:07;0.95;;;0.90;;
74674;SDS011;63200;48.810;12.352;2022-09-09T16:18:36;2.05;;;1.10;;
74674;SDS011;63200;48.810;12.352;2022-09-09T16:21:03;4.50;;;0.90;;
74674;SDS011;63200;48.810;12.352;2022-09-09T16:23:29;0.80;;;0.80;;
74674;SDS011;63200;48.810;12.352;2022-09-09T16:25:56;2.78;;;1.30;;
74674;SDS011;63200;48.810;12.352;2022-09-09T16:28:22;1.95;;;0.90;;
74674;SDS011;63200;48.810;12.352;2022-09-09T16:30:48;1.65;;;0.90;;
74674;SDS011;63200;48.810;12.352;2022-09-09T16:33:14;1.02;;;1.02;;
74674;SDS011;63200;48.810;12.352;2022-09-09T16:35:40;2.92;;;0.98;;
74674;SDS011;63200;48.810;12.352;2022-09-09T16:38:06;2.70;;;1.00;;
74674;SDS011;63200;48.810;12.352;2022-09-09T16:40:33;1.52;;;0.90;;
74674;SDS011;63200;48.810;12.352;2022-09-09T16:43:00;3.20;;;0.75;;
74674;SDS011;63200;48.810;12.352;2022-09-09T16:45:26;1.45;;;0.70;;
74674;SDS011;63200;48.810;12.352;2022-09-09T16:47:51;6.60;;;1.00;;
74674;SDS011;63200;48.810;12.352;2022-09-09T16:50:16;2.33;;;1.10;;
74674;SDS011;63200;48.810;12.352;2022-09-09T16:52:42;1.25;;;0.80;;
74674;SDS011;63200;48.810;12.352;2022-09-09T16:55:07;1.15;;;1.00;;
74674;SDS011;63200;48.810;12.352;2022-09-09T16:57:34;1.02;;;0.88;;
74674;SDS011;63200;48.810;12.352;2022-09-09T16:59:59;2.33;;;0.88;;
74674;SDS011;63200;48.810;12.352;2022-09-09T17:02:26;1.30;;;0.90;;
74674;SDS011;63200;48.810;12.352;2022-09-09T17:04:51;1.20;;;0.90;;
74674;SDS011;63200;48.810;12.352;2022-09-09T17:07:17;1.42;;;0.80;;
74674;SDS011;63200;48.810;12.352;2022-09-09T17:09:44;1.40;;;1.10;;
74674;SDS011;63200;48.810;12.352;2022-09-09T17:12:10;1.30;;;0.88;;
74674;SDS011;63200;48.810;12.352;2022-09-09T17:14:37;2.92;;;1.20;;
74674;SDS011;63200;48.810;12.352;2022-09-09T17:17:03;3.60;;;1.35;;
74674;SDS011;63200;48.810;12.352;2022-09-09T17:19:29;3.40;;;0.88;;
74674;SDS011;63200;48.810;12.352;2022-09-09T17:21:55;1.25;;;0.85;;
74674;SDS011;63200;48.810;12.352;2022-09-09T17:24:23;1.10;;;0.90;;
74674;SDS011;63200;48.810;12.352;2022-09-09T17:26:51;0.70;;;0.70;;
74674;SDS011;63200;48.810;12.352;2022-09-09T17:29:16;2.97;;;1.38;;